Time;durP1;ratioP1;P1;durP2;ratioP2;P2;SDS_P1;SDS_P2;PMS_P1;PMS_P2;Temp;Humidity;BMP_temperature;BMP_pressure;BME280_temperature;BME280_humidity;BME280_pressure;Samples;Min_cycle;Max_cycle;Signal;HPM_P1;HPM_P2
2022/01/19 00:00:41;;;;;;;;;22.25;20.25;;;;;;;;5011473;28;46955;-69
2022/01/19 00:03:06;;;;;;;;;16.00;15.00;;;;;;;;5011230;28;45343;-69
2022/01/19 00:05:31;;;;;;;;;21.75;17.75;;;;;;;;5016451;28;45307;-69
2022/01/19 00:07:56;;;;;;;;;15.50;12.75;;;;;;;;5012456;28;45394;-70
2022/01/19 00:10:28;;;;;;;;;18.25;15.50;;;;;;;;5011436;28;46013;-68
2022/01/19 00:12:54;;;;;;;;;22.50;18.00;;;;;;;;5015349;28;45324;-68
2022/01/19 00:15:20;;;;;;;;;19.50;19.50;;;;;;;;5015727;28;45461;-68
2022/01/19 00:17:45;;;;;;;;;16.50;16.25;;;;;;;;5015438;28;47827;-69
2022/01/19 00:20:10;;;;;;;;;21.50;20.00;;;;;;;;5015729;28;45391;-68
2022/01/19 00:22:37;;;;;;;;;16.00;16.00;;;;;;;;5016247;28;45458;-68
2022/01/19 00:25:03;;;;;;;;;19.25;17.00;;;;;;;;5015415;28;45427;-69
2022/01/19 00:27:28;;;;;;;;;17.25;17.25;;;;;;;;5010992;28;45411;-69
2022/01/19 00:29:53;;;;;;;;;17.25;14.75;;;;;;;;5012849;28;45395;-69
2022/01/19 00:32:19;;;;;;;;;19.25;16.25;;;;;;;;5013560;28;45521;-69
2022/01/19 00:34:44;;;;;;;;;22.50;19.75;;;;;;;;5011886;28;45328;-69
2022/01/19 00:37:09;;;;;;;;;18.00;15.50;;;;;;;;5011505;28;45557;-69
2022/01/19 00:39:34;;;;;;;;;16.50;15.50;;;;;;;;5011199;28;46189;-70
2022/01/19 00:42:00;;;;;;;;;15.00;14.75;;;;;;;;5012134;28;45448;-69
2022/01/19 00:44:26;;;;;;;;;16.00;16.00;;;;;;;;5014698;28;45466;-69
2022/01/19 00:46:51;;;;;;;;;19.75;17.25;;;;;;;;5011232;28;45336;-69
2022/01/19 00:49:16;;;;;;;;;23.75;20.25;;;;;;;;5011005;28;46990;-69
2022/01/19 00:51:41;;;;;;;;;21.25;17.50;;;;;;;;5015149;28;45241;-69
2022/01/19 00:54:06;;;;;;;;;21.75;16.00;;;;;;;;5015114;28;45432;-69
2022/01/19 00:56:33;;;;;;;;;21.25;17.00;;;;;;;;5015260;28;45229;-69
2022/01/19 00:58:59;;;;;;;;;22.25;18.00;;;;;;;;5015602;28;45355;-68
2022/01/19 01:01:24;;;;;;;;;23.00;18.75;;;;;;;;5010128;28;45582;-68
2022/01/19 01:03:49;;;;;;;;;22.75;18.50;;;;;;;;5010733;28;45451;-68
2022/01/19 01:06:15;;;;;;;;;24.25;18.25;;;;;;;;5010700;28;45441;-68
2022/01/19 01:08:40;;;;;;;;;14.75;14.75;;;;;;;;5029173;28;46583;-69
2022/01/19 01:11:05;;;;;;;;;22.00;16.50;;;;;;;;5011858;28;45412;-68
2022/01/19 01:15:26;;;;;;;;;18.50;18.50;;;;;;;;5010635;28;45362;-68
2022/01/19 01:16:31;;;;;;;;;15.75;14.50;;;;;;;;5010081;28;45601;-69
2022/01/19 01:18:57;;;;;;;;;26.75;23.25;;;;;;;;5010421;28;46324;-68
2022/01/19 01:21:22;;;;;;;;;22.25;19.00;;;;;;;;5010379;28;45217;-70
2022/01/19 01:23:47;;;;;;;;;22.25;18.75;;;;;;;;5012907;28;45465;-70
2022/01/19 01:26:13;;;;;;;;;22.75;18.50;;;;;;;;5012534;28;45290;-69
2022/01/19 01:28:38;;;;;;;;;20.00;18.75;;;;;;;;5010738;28;45974;-68
2022/01/19 01:31:04;;;;;;;;;19.50;16.50;;;;;;;;5013915;28;45554;-68
2022/01/19 01:33:29;;;;;;;;;21.25;18.75;;;;;;;;5014327;28;45466;-68
2022/01/19 01:35:55;;;;;;;;;24.00;20.50;;;;;;;;5014610;28;45364;-69
2022/01/19 01:38:20;;;;;;;;;23.00;19.25;;;;;;;;5014319;28;46437;-69
2022/01/19 01:40:45;;;;;;;;;18.75;18.00;;;;;;;;5014362;28;45450;-70
2022/01/19 01:43:11;;;;;;;;;23.50;20.00;;;;;;;;5014201;28;45323;-70
2022/01/19 01:45:39;;;;;;;;;21.50;20.00;;;;;;;;5014200;28;45284;-70
2022/01/19 01:53:26;;;;;;;;;19.50;17.75;;;;;;;;5012604;28;45411;-69
2022/01/19 01:55:52;;;;;;;;;22.00;19.50;;;;;;;;5014298;28;45277;-68
2022/01/19 01:58:17;;;;;;;;;24.00;17.00;;;;;;;;5009602;28;45485;-69
2022/01/19 02:00:43;;;;;;;;;17.25;15.50;;;;;;;;5009905;28;45470;-70
2022/01/19 02:03:09;;;;;;;;;22.25;21.00;;;;;;;;5010090;28;45391;-69
2022/01/19 02:05:39;;;;;;;;;22.50;18.00;;;;;;;;5014174;28;45406;-69
2022/01/19 02:08:15;;;;;;;;;21.00;17.50;;;;;;;;5010823;28;45923;-69
2022/01/19 02:16:21;;;;;;;;;22.00;17.25;;;;;;;;5010042;28;45280;-69
2022/01/19 02:24:02;;;;;;;;;27.75;25.25;;;;;;;;5010559;28;45299;-69
2022/01/19 02:26:43;;;;;;;;;19.75;17.00;;;;;;;;5013824;28;45475;-70
2022/01/19 02:29:58;;;;;;;;;21.50;20.00;;;;;;;;5011062;28;47207;-69
2022/01/19 02:40:24;;;;;;;;;21.50;19.75;;;;;;;;5009625;28;45832;-69
2022/01/19 02:43:07;;;;;;;;;20.50;19.75;;;;;;;;5008898;28;45607;-69
2022/01/19 02:51:02;;;;;;;;;23.75;20.75;;;;;;;;5013643;28;45409;-69
2022/01/19 02:53:27;;;;;;;;;20.00;18.00;;;;;;;;5015010;28;45372;-70
2022/01/19 02:55:52;;;;;;;;;16.00;15.50;;;;;;;;5018096;28;45423;-70
2022/01/19 02:58:21;;;;;;;;;21.75;18.75;;;;;;;;5016671;28;47641;-70
2022/01/19 03:08:58;;;;;;;;;19.25;19.25;;;;;;;;5016721;28;45355;-70
2022/01/19 03:11:24;;;;;;;;;24.25;22.00;;;;;;;;5016211;28;46261;-70
2022/01/19 03:13:50;;;;;;;;;20.75;19.50;;;;;;;;5017607;28;45399;-69
2022/01/19 03:16:19;;;;;;;;;21.75;20.50;;;;;;;;5014663;28;45460;-69
2022/01/19 03:18:46;;;;;;;;;20.50;19.50;;;;;;;;5016496;28;45422;-70
2022/01/19 03:21:11;;;;;;;;;21.50;19.00;;;;;;;;5016495;28;46449;-68
2022/01/19 03:23:36;;;;;;;;;23.50;19.50;;;;;;;;5016616;28;45552;-67
2022/01/19 03:26:06;;;;;;;;;26.25;23.50;;;;;;;;5017351;28;45413;-69
2022/01/19 03:28:31;;;;;;;;;24.25;22.25;;;;;;;;5012661;28;45333;-69
2022/01/19 03:30:57;;;;;;;;;21.25;19.00;;;;;;;;5012034;28;46346;-69
2022/01/19 03:33:22;;;;;;;;;23.75;18.50;;;;;;;;5012029;28;45465;-69
2022/01/19 03:35:47;;;;;;;;;29.75;23.25;;;;;;;;5014694;28;45391;-69
2022/01/19 03:38:13;;;;;;;;;23.25;20.25;;;;;;;;5014520;28;45324;-69
2022/01/19 03:40:38;;;;;;;;;25.25;22.25;;;;;;;;5012336;28;46571;-69
2022/01/19 03:43:05;;;;;;;;;23.25;20.25;;;;;;;;5011926;28;45530;-69
2022/01/19 03:45:32;;;;;;;;;23.00;22.00;;;;;;;;5011932;28;45570;-69
2022/01/19 03:50:32;;;;;;;;;23.00;18.75;;;;;;;;5000747;28;45492;-68
2022/01/19 03:52:57;;;;;;;;;22.75;22.25;;;;;;;;5012699;28;45515;-68
2022/01/19 03:55:23;;;;;;;;;18.50;18.50;;;;;;;;5011550;28;45239;-69
2022/01/19 03:57:48;;;;;;;;;25.25;20.75;;;;;;;;5011832;28;45453;-69
2022/01/19 04:00:15;;;;;;;;;26.00;25.25;;;;;;;;5011348;28;47319;-68
2022/01/19 04:02:40;;;;;;;;;21.00;20.50;;;;;;;;5015283;28;45367;-68
2022/01/19 04:05:17;;;;;;;;;28.00;23.75;;;;;;;;5012617;28;45342;-68
2022/01/19 04:07:42;;;;;;;;;24.75;23.75;;;;;;;;5016762;28;45357;-69
2022/01/19 04:10:08;;;;;;;;;24.25;23.25;;;;;;;;5015189;28;45525;-69
2022/01/19 04:12:56;;;;;;;;;27.75;24.50;;;;;;;;5015384;28;45538;-67
2022/01/19 04:15:21;;;;;;;;;31.25;26.00;;;;;;;;5015595;28;45479;-69
2022/01/19 04:17:53;;;;;;;;;31.50;28.00;;;;;;;;5015588;28;45390;-68
2022/01/19 04:20:19;;;;;;;;;29.25;24.25;;;;;;;;5015440;28;46179;-68
2022/01/19 04:22:45;;;;;;;;;25.50;21.25;;;;;;;;5016043;28;45462;-68
2022/01/19 04:25:10;;;;;;;;;29.00;27.75;;;;;;;;5015129;28;45385;-68
2022/01/19 04:27:36;;;;;;;;;30.75;27.50;;;;;;;;5009416;28;45496;-68
2022/01/19 04:30:10;;;;;;;;;29.25;26.75;;;;;;;;5026390;28;46208;-68
2022/01/19 04:32:47;;;;;;;;;24.00;22.75;;;;;;;;5014672;28;45399;-68
2022/01/19 04:35:16;;;;;;;;;22.50;22.50;;;;;;;;5013252;28;46060;-68
2022/01/19 04:54:47;;;;;;;;;28.25;25.00;;;;;;;;4953831;28;45524;-67
2022/01/19 05:07:18;;;;;;;;;23.75;23.25;;;;;;;;4953806;28;45691;-69
2022/01/19 05:10:02;;;;;;;;;24.25;23.25;;;;;;;;4953843;28;45401;-69
2022/01/19 05:15:11;;;;;;;;;28.00;23.50;;;;;;;;4952611;28;45348;-68
2022/01/19 05:17:37;;;;;;;;;25.25;22.75;;;;;;;;4953305;28;45943;-68
2022/01/19 05:20:04;;;;;;;;;32.50;28.25;;;;;;;;4997765;28;45404;-68
2022/01/19 05:22:30;;;;;;;;;28.00;24.50;;;;;;;;5014088;28;48329;-68
2022/01/19 05:24:55;;;;;;;;;26.50;25.75;;;;;;;;5010305;28;45567;-68
2022/01/19 05:27:22;;;;;;;;;27.00;23.75;;;;;;;;5010353;28;45375;-69
2022/01/19 05:29:47;;;;;;;;;28.00;26.25;;;;;;;;5012266;28;45504;-69
2022/01/19 05:32:12;;;;;;;;;25.50;22.75;;;;;;;;5027666;28;46991;-68
2022/01/19 05:34:38;;;;;;;;;28.75;26.50;;;;;;;;5010144;28;45265;-69
2022/01/19 05:37:03;;;;;;;;;24.50;22.75;;;;;;;;5009462;28;45467;-68
2022/01/19 05:39:28;;;;;;;;;23.50;23.50;;;;;;;;5009676;28;45273;-69
2022/01/19 05:41:54;;;;;;;;;28.25;27.00;;;;;;;;5011115;28;46904;-69
2022/01/19 05:44:19;;;;;;;;;30.50;23.00;;;;;;;;5012246;28;45812;-68
2022/01/19 05:46:44;;;;;;;;;31.75;23.75;;;;;;;;5010119;28;45431;-68
2022/01/19 05:49:09;;;;;;;;;28.50;25.75;;;;;;;;5009406;28;45421;-69
2022/01/19 05:51:35;;;;;;;;;32.75;28.50;;;;;;;;5008955;28;45458;-69
2022/01/19 05:54:00;;;;;;;;;23.00;19.50;;;;;;;;5010216;28;45387;-69
2022/01/19 05:56:25;;;;;;;;;28.75;24.50;;;;;;;;5013344;28;45447;-69
2022/01/19 05:58:50;;;;;;;;;28.75;26.25;;;;;;;;5010030;28;45435;-69
2022/01/19 06:01:16;;;;;;;;;26.50;24.25;;;;;;;;5009186;28;45428;-69
2022/01/19 06:03:41;;;;;;;;;25.00;24.50;;;;;;;;5013104;28;45332;-69
2022/01/19 06:06:06;;;;;;;;;30.00;28.00;;;;;;;;5012628;28;45372;-68
2022/01/19 06:08:44;;;;;;;;;37.75;28.00;;;;;;;;5013325;28;45382;-69
2022/01/19 06:11:10;;;;;;;;;24.50;23.50;;;;;;;;5010183;28;46410;-69
2022/01/19 06:13:35;;;;;;;;;27.50;24.75;;;;;;;;5008802;28;45553;-68
2022/01/19 06:16:00;;;;;;;;;33.75;29.25;;;;;;;;5009263;28;45494;-68
2022/01/19 06:18:26;;;;;;;;;27.25;26.50;;;;;;;;5008652;28;45473;-68
2022/01/19 06:20:51;;;;;;;;;38.75;33.50;;;;;;;;5010195;28;45388;-68
2022/01/19 06:23:16;;;;;;;;;36.00;31.50;;;;;;;;5011410;28;45601;-69
2022/01/19 06:25:42;;;;;;;;;31.25;28.75;;;;;;;;5007870;28;45374;-68
2022/01/19 06:28:07;;;;;;;;;29.50;27.50;;;;;;;;5011114;28;45535;-69
2022/01/19 06:30:32;;;;;;;;;41.75;33.50;;;;;;;;5011095;28;46755;-71
2022/01/19 06:32:58;;;;;;;;;34.00;30.75;;;;;;;;5011563;28;45399;-69
2022/01/19 06:35:23;;;;;;;;;37.25;32.00;;;;;;;;5014043;28;45371;-69
2022/01/19 06:37:49;;;;;;;;;45.25;33.25;;;;;;;;5010992;28;45517;-69
2022/01/19 06:40:16;;;;;;;;;40.00;33.50;;;;;;;;5010947;28;45442;-68
2022/01/19 06:42:41;;;;;;;;;40.00;34.75;;;;;;;;5014951;28;45448;-68
2022/01/19 06:45:07;;;;;;;;;36.00;34.00;;;;;;;;5015525;28;45243;-70
2022/01/19 06:47:33;;;;;;;;;37.75;34.25;;;;;;;;5015387;28;45409;-69
2022/01/19 06:49:58;;;;;;;;;36.75;34.75;;;;;;;;5014126;28;47062;-68
2022/01/19 06:52:23;;;;;;;;;40.00;35.25;;;;;;;;5015400;28;45408;-67
2022/01/19 06:54:49;;;;;;;;;44.00;35.50;;;;;;;;5015127;28;45485;-67
2022/01/19 06:57:14;;;;;;;;;41.50;33.25;;;;;;;;5011246;28;45559;-67
2022/01/19 06:59:39;;;;;;;;;38.00;35.00;;;;;;;;5014652;28;46315;-67
2022/01/19 07:02:05;;;;;;;;;43.75;37.75;;;;;;;;5012359;28;45371;-68
2022/01/19 07:04:30;;;;;;;;;46.00;38.50;;;;;;;;5011193;28;45295;-67
2022/01/19 07:06:55;;;;;;;;;41.75;33.00;;;;;;;;5010518;28;45343;-69
2022/01/19 07:09:20;;;;;;;;;41.00;34.25;;;;;;;;5010535;28;46261;-69
2022/01/19 07:11:46;;;;;;;;;41.50;36.50;;;;;;;;5013364;28;45485;-68
2022/01/19 07:14:13;;;;;;;;;39.50;36.00;;;;;;;;5011374;28;45380;-68
2022/01/19 07:16:39;;;;;;;;;44.00;38.00;;;;;;;;5010447;28;45515;-67
2022/01/19 07:19:04;;;;;;;;;46.00;36.00;;;;;;;;5009290;28;45962;-67
2022/01/19 07:21:29;;;;;;;;;51.50;36.50;;;;;;;;5014148;28;45402;-69
2022/01/19 07:23:55;;;;;;;;;41.50;36.50;;;;;;;;5014684;28;45348;-68
2022/01/19 07:26:20;;;;;;;;;46.75;37.25;;;;;;;;5014969;28;45399;-68
2022/01/19 07:28:45;;;;;;;;;39.00;34.25;;;;;;;;5015001;28;46893;-68
2022/01/19 07:31:10;;;;;;;;;40.75;35.25;;;;;;;;5014789;28;45391;-67
2022/01/19 07:33:36;;;;;;;;;46.75;37.00;;;;;;;;5014640;28;45400;-68
2022/01/19 07:36:01;;;;;;;;;43.25;36.75;;;;;;;;5011325;28;45277;-69
2022/01/19 07:38:26;;;;;;;;;48.75;39.75;;;;;;;;5013212;28;45990;-69
2022/01/19 07:40:52;;;;;;;;;39.00;35.25;;;;;;;;5010442;28;45383;-70
2022/01/19 07:43:17;;;;;;;;;48.00;41.50;;;;;;;;5010315;28;45412;-69
2022/01/19 07:45:42;;;;;;;;;40.50;36.00;;;;;;;;5010287;28;45527;-69
2022/01/19 07:48:07;;;;;;;;;44.00;36.25;;;;;;;;5010068;28;46280;-70
2022/01/19 07:50:33;;;;;;;;;40.00;33.50;;;;;;;;5014714;28;45273;-70
2022/01/19 07:52:59;;;;;;;;;46.75;38.00;;;;;;;;5010704;28;45400;-70
2022/01/19 07:55:24;;;;;;;;;40.75;35.50;;;;;;;;5014372;28;45376;-69
2022/01/19 07:57:51;;;;;;;;;39.25;35.25;;;;;;;;5014195;28;45480;-70
2022/01/19 08:00:17;;;;;;;;;49.25;35.00;;;;;;;;5010227;28;45310;-69
2022/01/19 08:02:42;;;;;;;;;40.50;33.75;;;;;;;;5013086;28;45392;-69
2022/01/19 08:05:08;;;;;;;;;36.00;33.50;;;;;;;;5011626;28;45431;-69
2022/01/19 08:07:33;;;;;;;;;45.00;35.50;;;;;;;;5010060;28;46135;-74
2022/01/19 08:09:59;;;;;;;;;46.75;36.00;;;;;;;;5009267;28;45446;-69
2022/01/19 08:12:24;;;;;;;;;25.75;23.50;;;;;;;;5009798;28;45521;-69
2022/01/19 08:14:49;;;;;;;;;46.25;38.25;;;;;;;;5012324;28;45280;-70
2022/01/19 08:17:14;;;;;;;;;43.25;33.50;;;;;;;;5011863;28;47130;-69
2022/01/19 08:19:40;;;;;;;;;35.25;32.75;;;;;;;;5009655;28;45432;-68
2022/01/19 08:22:05;;;;;;;;;50.75;39.75;;;;;;;;5009281;28;45261;-70
2022/01/19 08:24:30;;;;;;;;;39.50;33.00;;;;;;;;5009410;28;45435;-70
2022/01/19 08:26:56;;;;;;;;;47.50;37.50;;;;;;;;5011145;28;46468;-71
2022/01/19 08:29:21;;;;;;;;;38.25;33.50;;;;;;;;5012901;28;45357;-70
2022/01/19 08:31:47;;;;;;;;;40.25;32.75;;;;;;;;5010637;28;45367;-70
2022/01/19 08:34:12;;;;;;;;;40.00;33.25;;;;;;;;5009983;28;45398;-69
2022/01/19 08:36:37;;;;;;;;;43.00;36.50;;;;;;;;5012083;28;46038;-69
2022/01/19 08:39:03;;;;;;;;;34.00;32.25;;;;;;;;5010096;28;45332;-71
2022/01/19 08:41:28;;;;;;;;;35.00;29.75;;;;;;;;5013659;28;45358;-70
2022/01/19 08:43:54;;;;;;;;;40.50;34.00;;;;;;;;5010092;28;45825;-69
2022/01/19 08:46:22;;;;;;;;;40.50;32.75;;;;;;;;5009113;28;45537;-70
2022/01/19 08:48:47;;;;;;;;;47.00;33.50;;;;;;;;5009391;28;45430;-70
2022/01/19 08:51:12;;;;;;;;;34.00;32.00;;;;;;;;5009627;28;45506;-70
2022/01/19 08:53:37;;;;;;;;;48.00;36.00;;;;;;;;5012549;28;45418;-70
2022/01/19 08:56:03;;;;;;;;;40.75;34.00;;;;;;;;5009678;28;45438;-70
2022/01/19 08:58:28;;;;;;;;;34.50;31.50;;;;;;;;5012489;28;45326;-70
2022/01/19 09:00:53;;;;;;;;;40.75;33.75;;;;;;;;5005516;28;45477;-70
2022/01/19 09:03:19;;;;;;;;;46.25;35.75;;;;;;;;5008955;28;45470;-70
2022/01/19 09:05:45;;;;;;;;;49.25;36.50;;;;;;;;5011840;28;46655;-70
2022/01/19 09:08:10;;;;;;;;;43.00;34.50;;;;;;;;5012296;28;45336;-71
2022/01/19 09:10:36;;;;;;;;;35.25;31.00;;;;;;;;5008480;28;45394;-71
2022/01/19 09:13:01;;;;;;;;;45.25;36.25;;;;;;;;5007742;28;45431;-71
2022/01/19 09:15:27;;;;;;;;;36.75;33.50;;;;;;;;5008502;28;45390;-72
2022/01/19 09:17:52;;;;;;;;;41.00;35.00;;;;;;;;5028329;28;45404;-71
2022/01/19 09:20:17;;;;;;;;;36.25;33.50;;;;;;;;5013178;28;45441;-72
2022/01/19 09:22:43;;;;;;;;;47.00;35.00;;;;;;;;5012905;28;45500;-70
2022/01/19 09:25:09;;;;;;;;;41.00;35.50;;;;;;;;5011251;28;46362;-69
2022/01/19 09:27:37;;;;;;;;;33.25;28.25;;;;;;;;5012595;28;45888;-69
2022/01/19 09:30:03;;;;;;;;;48.75;36.25;;;;;;;;5012856;28;45497;-69
2022/01/19 09:32:28;;;;;;;;;44.00;36.25;;;;;;;;5012268;28;45606;-69
2022/01/19 09:35:06;;;;;;;;;43.50;35.50;;;;;;;;5012203;28;46115;-69
2022/01/19 09:37:31;;;;;;;;;38.25;34.75;;;;;;;;5012571;28;45498;-68
2022/01/19 09:39:56;;;;;;;;;37.50;34.75;;;;;;;;5012672;28;45371;-69
2022/01/19 09:42:21;;;;;;;;;37.50;35.00;;;;;;;;5027191;28;45519;-68
2022/01/19 09:44:47;;;;;;;;;36.50;31.50;;;;;;;;5008831;28;46639;-69
2022/01/19 09:47:12;;;;;;;;;37.75;35.00;;;;;;;;5010239;28;45312;-68
2022/01/19 09:49:37;;;;;;;;;43.50;33.75;;;;;;;;5008261;28;45559;-69
2022/01/19 09:52:03;;;;;;;;;49.25;36.25;;;;;;;;5008119;28;45363;-69
2022/01/19 09:54:30;;;;;;;;;50.25;38.25;;;;;;;;5007823;28;47463;-68
2022/01/19 09:56:56;;;;;;;;;45.75;35.75;;;;;;;;5009128;28;45356;-69
2022/01/19 09:59:22;;;;;;;;;42.00;31.50;;;;;;;;5012112;28;45503;-68
2022/01/19 10:01:48;;;;;;;;;41.75;35.75;;;;;;;;5007657;28;45777;-69
2022/01/19 10:04:17;;;;;;;;;48.00;38.75;;;;;;;;5008195;28;45528;-69
2022/01/19 10:06:42;;;;;;;;;43.50;34.00;;;;;;;;5008274;28;45446;-68
2022/01/19 10:09:07;;;;;;;;;42.75;33.50;;;;;;;;5007841;28;45485;-67
2022/01/19 10:17:06;;;;;;;;;44.00;34.50;;;;;;;;5011424;28;45502;-67
2022/01/19 10:19:36;;;;;;;;;45.75;36.75;;;;;;;;5007689;28;45415;-68
2022/01/19 10:22:07;;;;;;;;;48.50;37.00;;;;;;;;5007361;28;45441;-68
2022/01/19 10:24:48;;;;;;;;;41.25;35.00;;;;;;;;5006942;28;46227;-68
2022/01/19 10:27:17;;;;;;;;;42.00;34.25;;;;;;;;5006860;28;45543;-68
2022/01/19 10:29:43;;;;;;;;;38.25;32.25;;;;;;;;5011792;28;45412;-68
2022/01/19 10:32:08;;;;;;;;;39.50;33.25;;;;;;;;5009017;28;45442;-69
2022/01/19 10:34:34;;;;;;;;;42.50;36.50;;;;;;;;5008211;28;46261;-67
2022/01/19 10:37:03;;;;;;;;;47.00;36.25;;;;;;;;5013105;28;45280;-69
2022/01/19 10:39:49;;;;;;;;;50.75;37.50;;;;;;;;5010256;28;45471;-67
2022/01/19 10:42:16;;;;;;;;;48.50;38.75;;;;;;;;5012991;28;45400;-69
2022/01/19 10:44:41;;;;;;;;;33.00;28.50;;;;;;;;5012934;28;45575;-67
2022/01/19 10:47:07;;;;;;;;;43.50;35.75;;;;;;;;5011929;28;45353;-68
2022/01/19 10:49:52;;;;;;;;;49.25;39.25;;;;;;;;5007825;28;45515;-68
2022/01/19 10:52:37;;;;;;;;;44.50;37.75;;;;;;;;5006994;28;45336;-68
2022/01/19 10:55:05;;;;;;;;;48.50;40.00;;;;;;;;5006622;28;46945;-68
2022/01/19 10:57:31;;;;;;;;;48.75;39.25;;;;;;;;5007527;28;45378;-69
2022/01/19 11:00:09;;;;;;;;;50.00;39.00;;;;;;;;5008619;28;45293;-68
2022/01/19 11:02:37;;;;;;;;;50.00;39.75;;;;;;;;5022899;28;45413;-68
2022/01/19 11:05:03;;;;;;;;;47.00;38.75;;;;;;;;5008528;28;45385;-69
2022/01/19 11:07:28;;;;;;;;;44.75;37.50;;;;;;;;5007416;28;45403;-69
2022/01/19 11:09:59;;;;;;;;;49.25;39.25;;;;;;;;5007055;28;45640;-70
2022/01/19 11:12:31;;;;;;;;;51.50;41.25;;;;;;;;5006821;28;45362;-71
2022/01/19 11:14:56;;;;;;;;;55.00;44.00;;;;;;;;5011011;28;46358;-70
2022/01/19 11:17:22;;;;;;;;;55.25;46.00;;;;;;;;5011491;28;45264;-69
2022/01/19 11:19:49;;;;;;;;;56.00;44.00;;;;;;;;5011394;28;45770;-69
2022/01/19 11:22:31;;;;;;;;;56.75;43.25;;;;;;;;5009547;28;45442;-69
2022/01/19 11:25:15;;;;;;;;;52.50;38.25;;;;;;;;5009048;28;46471;-69
2022/01/19 11:27:45;;;;;;;;;56.75;44.00;;;;;;;;5009675;28;45516;-70
2022/01/19 11:30:13;;;;;;;;;60.75;45.25;;;;;;;;5008954;28;45515;-70
2022/01/19 11:32:39;;;;;;;;;60.00;45.50;;;;;;;;5013146;28;45418;-70
2022/01/19 11:35:04;;;;;;;;;57.25;47.25;;;;;;;;5010751;28;47176;-70
2022/01/19 11:37:43;;;;;;;;;61.75;47.50;;;;;;;;5009682;28;45540;-71
2022/01/19 11:40:11;;;;;;;;;62.25;46.25;;;;;;;;5009749;28;45201;-70
2022/01/19 11:42:36;;;;;;;;;57.25;44.00;;;;;;;;5011582;28;45512;-69
2022/01/19 11:45:03;;;;;;;;;55.25;45.50;;;;;;;;5010674;28;45980;-70
2022/01/19 11:47:31;;;;;;;;;61.25;45.75;;;;;;;;5013849;28;45376;-71
2022/01/19 11:50:07;;;;;;;;;61.25;46.50;;;;;;;;5010949;28;45387;-69
2022/01/19 11:52:38;;;;;;;;;54.75;46.25;;;;;;;;5014369;28;45434;-69
2022/01/19 11:55:13;;;;;;;;;55.25;42.75;;;;;;;;5010106;28;46055;-69
2022/01/19 11:57:40;;;;;;;;;54.00;42.50;;;;;;;;5009305;28;45580;-70
2022/01/19 12:00:07;;;;;;;;;57.00;45.25;;;;;;;;5006029;28;45445;-70
2022/01/19 12:02:41;;;;;;;;;52.25;42.00;;;;;;;;4997797;28;45636;-70
2022/01/19 12:05:09;;;;;;;;;60.00;47.50;;;;;;;;5011071;28;45387;-69
2022/01/19 12:07:40;;;;;;;;;50.50;38.50;;;;;;;;5013744;28;45478;-69
2022/01/19 12:10:08;;;;;;;;;52.50;42.25;;;;;;;;5013804;28;45446;-68
2022/01/19 12:12:40;;;;;;;;;50.25;40.25;;;;;;;;5014394;28;45493;-68
2022/01/19 12:15:08;;;;;;;;;49.50;40.75;;;;;;;;5014053;28;46538;-69
2022/01/19 12:17:52;;;;;;;;;46.00;38.50;;;;;;;;4998279;28;45721;-68
2022/01/19 12:20:52;;;;;;;;;50.75;39.00;;;;;;;;5011772;28;45280;-69
2022/01/19 12:23:28;;;;;;;;;48.75;36.50;;;;;;;;4932241;28;45680;-69
2022/01/19 12:25:56;;;;;;;;;49.00;37.00;;;;;;;;4932905;28;47089;-70
2022/01/19 12:28:42;;;;;;;;;43.00;37.75;;;;;;;;4931797;28;45320;-71
2022/01/19 12:31:22;;;;;;;;;36.00;33.50;;;;;;;;4931332;28;45412;-70
2022/01/19 12:34:02;;;;;;;;;40.75;33.00;;;;;;;;4931085;28;45434;-69
2022/01/19 12:36:43;;;;;;;;;37.75;33.00;;;;;;;;4931228;28;45527;-70
2022/01/19 12:39:32;;;;;;;;;40.50;33.75;;;;;;;;4931304;28;45581;-70
2022/01/19 12:42:17;;;;;;;;;52.00;41.75;;;;;;;;4931118;28;45718;-69
2022/01/19 12:44:42;;;;;;;;;45.75;35.25;;;;;;;;4914944;28;45488;-70
2022/01/19 12:47:22;;;;;;;;;46.25;35.00;;;;;;;;4929663;28;45518;-67
2022/01/19 12:49:47;;;;;;;;;45.50;37.50;;;;;;;;4933251;28;45299;-67
2022/01/19 12:52:15;;;;;;;;;38.50;35.25;;;;;;;;4930674;28;46184;-68
2022/01/19 12:54:40;;;;;;;;;40.50;34.75;;;;;;;;4931701;28;45407;-68
2022/01/19 12:57:06;;;;;;;;;42.00;36.00;;;;;;;;4961919;28;45361;-68
2022/01/19 12:59:33;;;;;;;;;48.50;38.75;;;;;;;;5014069;28;45423;-68
2022/01/19 13:01:59;;;;;;;;;43.00;34.25;;;;;;;;5009718;28;45426;-67
2022/01/19 13:04:29;;;;;;;;;41.25;34.50;;;;;;;;5024516;28;45412;-66
2022/01/19 13:06:56;;;;;;;;;36.75;32.50;;;;;;;;5008735;28;45411;-67
2022/01/19 13:09:30;;;;;;;;;29.00;25.25;;;;;;;;5006801;28;45415;-67
2022/01/19 13:11:56;;;;;;;;;45.25;35.00;;;;;;;;5010062;28;45526;-67
2022/01/19 13:14:23;;;;;;;;;46.75;37.50;;;;;;;;5011879;28;45388;-69
2022/01/19 13:16:51;;;;;;;;;40.75;35.50;;;;;;;;4996098;28;47201;-68
2022/01/19 13:19:19;;;;;;;;;34.75;32.00;;;;;;;;5011600;28;45440;-68
2022/01/19 13:21:46;;;;;;;;;37.00;28.75;;;;;;;;5012727;28;45488;-68
2022/01/19 13:24:24;;;;;;;;;39.00;30.00;;;;;;;;5013232;28;45432;-69
2022/01/19 13:26:54;;;;;;;;;32.25;27.00;;;;;;;;5012876;28;47064;-67
2022/01/19 13:29:26;;;;;;;;;38.25;31.75;;;;;;;;5012713;28;45407;-67
2022/01/19 13:32:12;;;;;;;;;32.25;30.25;;;;;;;;5013567;28;45498;-68
2022/01/19 13:34:57;;;;;;;;;32.00;29.25;;;;;;;;5007874;28;45359;-68
2022/01/19 13:37:24;;;;;;;;;34.50;28.75;;;;;;;;5007161;28;46156;-68
2022/01/19 13:39:57;;;;;;;;;29.00;28.25;;;;;;;;5023589;28;45296;-68
2022/01/19 13:42:32;;;;;;;;;28.00;26.00;;;;;;;;5008700;28;45375;-67
2022/01/19 13:44:58;;;;;;;;;35.25;32.50;;;;;;;;5010421;28;45375;-68
2022/01/19 13:47:30;;;;;;;;;31.00;27.25;;;;;;;;5012217;28;47278;-68
2022/01/19 13:49:55;;;;;;;;;42.00;34.50;;;;;;;;5008925;28;45412;-68
2022/01/19 13:52:22;;;;;;;;;35.00;31.00;;;;;;;;5008903;28;45402;-68
2022/01/19 13:54:47;;;;;;;;;32.25;27.75;;;;;;;;5010203;28;45617;-68
2022/01/19 13:57:12;;;;;;;;;29.75;28.50;;;;;;;;5008820;28;45387;-68
2022/01/19 13:59:37;;;;;;;;;31.25;23.00;;;;;;;;5012940;28;47179;-68
2022/01/19 14:02:13;;;;;;;;;33.75;30.75;;;;;;;;5009452;28;45862;-67
2022/01/19 14:04:49;;;;;;;;;32.50;29.75;;;;;;;;5012098;28;45420;-67
2022/01/19 14:07:16;;;;;;;;;31.75;29.50;;;;;;;;5007031;28;47212;-66
2022/01/19 14:09:41;;;;;;;;;29.25;25.00;;;;;;;;5008480;28;45419;-68
2022/01/19 14:12:10;;;;;;;;;31.75;28.75;;;;;;;;5008802;28;45465;-67
2022/01/19 14:14:39;;;;;;;;;37.00;31.00;;;;;;;;4997128;28;45363;-68
2022/01/19 14:17:05;;;;;;;;;33.75;29.50;;;;;;;;5009335;28;46510;-67
2022/01/19 14:19:41;;;;;;;;;34.00;32.25;;;;;;;;5007854;28;45308;-67
2022/01/19 14:22:14;;;;;;;;;33.75;31.75;;;;;;;;5007972;28;45434;-67
2022/01/19 14:24:58;;;;;;;;;30.25;27.75;;;;;;;;5008010;28;45344;-67
2022/01/19 14:27:23;;;;;;;;;33.00;25.75;;;;;;;;5007740;28;45496;-67
2022/01/19 14:30:07;;;;;;;;;37.50;30.50;;;;;;;;5012171;28;46106;-67
2022/01/19 14:32:34;;;;;;;;;30.75;25.25;;;;;;;;5011404;28;45351;-68
2022/01/19 14:34:59;;;;;;;;;29.00;26.50;;;;;;;;5013322;28;45320;-67
2022/01/19 14:37:24;;;;;;;;;34.75;31.25;;;;;;;;5012535;28;46269;-68
2022/01/19 14:39:58;;;;;;;;;33.75;28.50;;;;;;;;5012095;28;45861;-68
2022/01/19 14:42:28;;;;;;;;;38.00;27.50;;;;;;;;5011914;28;45637;-68
2022/01/19 14:45:18;;;;;;;;;30.75;30.75;;;;;;;;5007925;28;45857;-69
2022/01/19 14:47:42;;;;;;;;;31.00;25.00;;;;;;;;5010039;28;45456;-68
2022/01/19 14:50:16;;;;;;;;;39.00;29.50;;;;;;;;5015072;28;45690;-68
2022/01/19 14:52:42;;;;;;;;;38.25;32.25;;;;;;;;5014398;28;45411;-66
2022/01/19 14:55:07;;;;;;;;;32.00;29.50;;;;;;;;5011764;28;45466;-69
2022/01/19 14:57:32;;;;;;;;;32.50;27.00;;;;;;;;5011042;28;45403;-68
2022/01/19 14:59:57;;;;;;;;;31.25;26.00;;;;;;;;5016129;28;45537;-68
2022/01/19 15:02:24;;;;;;;;;29.00;27.25;;;;;;;;5030202;28;45414;-68
2022/01/19 15:04:50;;;;;;;;;34.00;28.00;;;;;;;;5012062;28;45333;-68
2022/01/19 15:07:16;;;;;;;;;38.25;32.25;;;;;;;;5011134;28;47110;-68
2022/01/19 15:09:41;;;;;;;;;34.50;25.00;;;;;;;;5010485;28;45490;-68
2022/01/19 15:12:06;;;;;;;;;39.25;35.00;;;;;;;;5012275;28;45281;-67
2022/01/19 15:14:32;;;;;;;;;34.00;32.25;;;;;;;;5014842;28;45458;-69
2022/01/19 15:16:57;;;;;;;;;36.25;28.50;;;;;;;;5010905;28;47052;-68
2022/01/19 15:19:22;;;;;;;;;28.25;26.00;;;;;;;;5009271;28;45508;-67
2022/01/19 15:21:47;;;;;;;;;31.50;27.25;;;;;;;;5010398;28;45426;-68
2022/01/19 15:24:13;;;;;;;;;32.25;27.75;;;;;;;;5012808;28;46014;-68
2022/01/19 15:26:38;;;;;;;;;27.25;24.75;;;;;;;;5014598;28;46602;-67
2022/01/19 15:29:04;;;;;;;;;37.00;31.75;;;;;;;;5014808;28;45296;-68
2022/01/19 15:31:29;;;;;;;;;34.00;30.75;;;;;;;;5010953;28;45407;-66
2022/01/19 15:33:54;;;;;;;;;35.50;31.00;;;;;;;;5010919;28;45465;-67
2022/01/19 15:36:19;;;;;;;;;35.50;30.50;;;;;;;;5010060;28;46050;-66